Time;durP1;ratioP1;P1;durP2;ratioP2;P2;SDS_P1;SDS_P2;PMS_P1;PMS_P2;Temp;Humidity;BMP_temperature;BMP_pressure;BME280_temperature;BME280_humidity;BME280_pressure;Samples;Min_cycle;Max_cycle;Signal;HPM_P1;HPM_P2
2022/03/12 00:01:42;;;;;;;;;;;;;;;8.27;53.12207;101296.7;;;;-80
2022/03/12 00:06:41;;;;;;;;;;;;;;;8.28;52.91406;101293.1;;;;-79
2022/03/12 00:07:30;;;;;;;19;8.1;;;;;;;;;;;;;-81
2022/03/12 00:11:55;;;;;;;;;;;;;;;8.32;52.45215;101292.5;;;;-82
2022/03/12 00:16:43;;;;;;;;;;;;;;;8.34;52.75391;101297.4;;;;-80
2022/03/12 00:21:49;;;;;;;;;;;;;;;8.35;52.64355;101296.3;;;;-79
2022/03/12 00:26:43;;;;;;;;;;;;;;;8.36;52.60059;101302.2;;;;-79
2022/03/12 00:31:41;;;;;;;;;;;;;;;8.37;52.38086;101303.5;;;;-80
2022/03/12 00:36:42;;;;;;;;;;;;;;;8.37;52.70313;101300.5;;;;-79
2022/03/12 00:37:28;;;;;;;18.9;8.3;;;;;;;;;;;;;-80
2022/03/12 00:41:45;;;;;;;;;;;;;;;8.38;52.66992;101309.2;;;;-80
2022/03/12 00:46:46;;;;;;;;;;;;;;;8.37;52.94629;101315.1;;;;-81
2022/03/12 00:51:44;;;;;;;;;;;;;;;8.36;52.85645;101313.3;;;;-81
2022/03/12 00:56:42;;;;;;;;;;;;;;;8.36;52.83398;101314;;;;-80
2022/03/12 01:01:43;;;;;;;;;;;;;;;8.36;52.88965;101312.7;;;;-80
2022/03/12 01:06:42;;;;;;;;;;;;;;;8.34;52.90918;101318.4;;;;-80
2022/03/12 01:07:28;;;;;;;16.2;7.9;;;;;;;;;;;;;-81
2022/03/12 01:11:43;;;;;;;;;;;;;;;8.33;53.12012;101315.5;;;;-80
2022/03/12 01:21:42;;;;;;;;;;;;;;;8.33;54.0957;101318.6;;;;-80
2022/03/12 01:26:43;;;;;;;;;;;;;;;8.32;54.51465;101321.8;;;;-81
2022/03/12 01:31:42;;;;;;;;;;;;;;;8.28;55.02148;101322.4;;;;-79
2022/03/12 01:36:47;;;;;;;;;;;;;;;8.24;55.22656;101326.1;;;;-79
2022/03/12 01:37:29;;;;;;;18.7;8.5;;;;;;;;;;;;;-81
2022/03/12 01:41:44;;;;;;;;;;;;;;;8.2;55.57617;101329.8;;;;-81
2022/03/12 01:46:52;;;;;;;;;;;;;;;8.17;56.03711;101334.8;;;;-79
2022/03/12 01:51:42;;;;;;;;;;;;;;;8.15;56.45605;101335;;;;-82
2022/03/12 01:56:42;;;;;;;;;;;;;;;8.11;56.93848;101336.3;;;;-80
2022/03/12 02:04:41;;;;;;;;;;;;;;;8.03;57.98047;101342.9;;;;-81
2022/03/12 02:07:28;;;;;;;19.4;8.4;;;;;;;;;;;;;-81
2022/03/12 02:09:44;;;;;;;;;;;;;;;8;58.3291;101343.4;;;;-80
2022/03/12 02:14:42;;;;;;;;;;;;;;;7.93;58.77441;101341.9;;;;-80
2022/03/12 02:19:42;;;;;;;;;;;;;;;7.91;59.08105;101347.4;;;;-80
2022/03/12 02:24:41;;;;;;;;;;;;;;;7.85;60.26855;101340.9;;;;-80
2022/03/12 02:29:43;;;;;;;;;;;;;;;7.81;59.33398;101334.4;;;;-81
2022/03/12 02:34:42;;;;;;;;;;;;;;;7.76;59.29297;101331.5;;;;-80
2022/03/12 02:37:33;;;;;;;18.5;8.8;;;;;;;;;;;;;-80
2022/03/12 02:39:42;;;;;;;;;;;;;;;7.74;60.42969;101330.9;;;;-79
2022/03/12 02:44:41;;;;;;;;;;;;;;;7.72;61.04688;101332.7;;;;-80
2022/03/12 02:49:43;;;;;;;;;;;;;;;7.7;61.04297;101332.1;;;;-81
2022/03/12 02:54:41;;;;;;;;;;;;;;;7.67;60.85059;101333.5;;;;-79
2022/03/12 02:59:43;;;;;;;;;;;;;;;7.65;60.87012;101344.5;;;;-81
2022/03/12 03:04:44;;;;;;;;;;;;;;;7.64;60.95801;101343;;;;-81
2022/03/12 03:07:29;;;;;;;19.3;9.1;;;;;;;;;;;;;-80
2022/03/12 03:09:41;;;;;;;;;;;;;;;7.6;60.94141;101348.1;;;;-81
2022/03/12 03:14:42;;;;;;;;;;;;;;;7.58;60.30859;101356.1;;;;-83
2022/03/12 03:19:42;;;;;;;;;;;;;;;7.56;61.40039;101345.5;;;;-82
2022/03/12 03:24:41;;;;;;;;;;;;;;;7.54;61.28613;101347.4;;;;-79
2022/03/12 03:29:41;;;;;;;;;;;;;;;7.48;61.05762;101354.4;;;;-80
2022/03/12 03:34:41;;;;;;;;;;;;;;;7.44;61.58105;101354.4;;;;-80
2022/03/12 03:37:29;;;;;;;19.6;8.4;;;;;;;;;;;;;-82
2022/03/12 03:39:42;;;;;;;;;;;;;;;7.4;60.50293;101356.8;;;;-80
2022/03/12 03:44:42;;;;;;;;;;;;;;;7.36;61.55957;101364.4;;;;-80
2022/03/12 03:49:44;;;;;;;;;;;;;;;7.31;60.93457;101367.7;;;;-80
2022/03/12 03:54:42;;;;;;;;;;;;;;;7.25;60.91406;101375.5;;;;-81
2022/03/12 03:59:50;;;;;;;;;;;;;;;7.2;61.18359;101381.5;;;;-82
2022/03/12 04:04:42;;;;;;;;;;;;;;;7.15;61.09863;101383.2;;;;-80
2022/03/12 04:07:34;;;;;;;19;8.6;;;;;;;;;;;;;-79
2022/03/12 04:09:41;;;;;;;;;;;;;;;7.12;62.47363;101383.9;;;;-80
2022/03/12 04:14:41;;;;;;;;;;;;;;;7.14;62.32227;101383.8;;;;-80
2022/03/12 04:19:41;;;;;;;;;;;;;;;7.16;62.53613;101394.6;;;;-80
2022/03/12 04:24:49;;;;;;;;;;;;;;;7.14;61.96875;101395.2;;;;-81
2022/03/12 04:29:42;;;;;;;;;;;;;;;7.1;62.97852;101392.8;;;;-80
2022/03/12 04:34:41;;;;;;;;;;;;;;;7.06;62.22266;101399.8;;;;-81
2022/03/12 04:37:30;;;;;;;19.1;8.2;;;;;;;;;;;;;-80
2022/03/12 04:39:42;;;;;;;;;;;;;;;7.01;62.4375;101403.3;;;;-80
2022/03/12 04:44:41;;;;;;;;;;;;;;;6.96;62.67188;101399.7;;;;-81
2022/03/12 04:49:43;;;;;;;;;;;;;;;6.9;62.65039;101405.4;;;;-80
2022/03/12 04:54:41;;;;;;;;;;;;;;;6.87;62.95605;101413.1;;;;-81
2022/03/12 04:59:41;;;;;;;;;;;;;;;6.85;62.54492;101420.1;;;;-81
2022/03/12 05:04:41;;;;;;;;;;;;;;;6.8;63.14355;101426.7;;;;-80
2022/03/12 05:07:30;;;;;;;18;8.1;;;;;;;;;;;;;-80
2022/03/12 05:09:46;;;;;;;;;;;;;;;6.75;63.85449;101425.4;;;;-81
2022/03/12 05:14:50;;;;;;;;;;;;;;;6.72;63.5293;101428.1;;;;-80
2022/03/12 05:19:46;;;;;;;;;;;;;;;6.68;63.51172;101427.3;;;;-81
2022/03/12 05:24:48;;;;;;;;;;;;;;;6.66;64.66602;101438.9;;;;-81
2022/03/12 05:29:45;;;;;;;;;;;;;;;6.63;64.0332;101443.7;;;;-80
2022/03/12 05:34:42;;;;;;;;;;;;;;;6.59;65.28418;101451.6;;;;-80
2022/03/12 05:37:36;;;;;;;16.4;7.4;;;;;;;;;;;;;-79
2022/03/12 05:39:41;;;;;;;;;;;;;;;6.57;64.71875;101461.7;;;;-80
2022/03/12 05:44:41;;;;;;;;;;;;;;;6.55;64.98047;101456.5;;;;-80
2022/03/12 05:49:45;;;;;;;;;;;;;;;6.55;66.41113;101457.5;;;;-81
2022/03/12 05:54:51;;;;;;;;;;;;;;;6.5;64.58789;101463.3;;;;-81
2022/03/12 05:59:41;;;;;;;;;;;;;;;6.52;65.2627;101469.6;;;;-80
2022/03/12 06:04:44;;;;;;;;;;;;;;;6.45;65.09766;101472.5;;;;-80
2022/03/12 06:07:32;;;;;;;14.3;7;;;;;;;;;;;;;-80
2022/03/12 06:09:44;;;;;;;;;;;;;;;6.43;65.21582;101470.6;;;;-81
2022/03/12 06:14:43;;;;;;;;;;;;;;;6.41;64.6416;101480.2;;;;-82
2022/03/12 06:19:41;;;;;;;;;;;;;;;6.39;65.24316;101488.3;;;;-81
2022/03/12 06:24:41;;;;;;;;;;;;;;;6.37;64.96484;101491.5;;;;-80
2022/03/12 06:29:45;;;;;;;;;;;;;;;6.36;65.20508;101499.2;;;;-82
2022/03/12 06:34:45;;;;;;;;;;;;;;;6.37;65.92285;101503.7;;;;-81
2022/03/12 06:37:30;;;;;;;14.3;6.4;;;;;;;;;;;;;-80
2022/03/12 06:39:41;;;;;;;;;;;;;;;6.4;65.76074;101513.8;;;;-81
2022/03/12 06:44:42;;;;;;;;;;;;;;;6.44;66.38379;101522.4;;;;-79
2022/03/12 06:49:42;;;;;;;;;;;;;;;6.49;66.31543;101516.4;;;;-82
2022/03/12 06:54:41;;;;;;;;;;;;;;;6.57;68.43945;101523.7;;;;-81
2022/03/12 06:59:41;;;;;;;;;;;;;;;6.66;68.45313;101532.9;;;;-80
2022/03/12 07:04:41;;;;;;;;;;;;;;;6.75;67.97266;101530.4;;;;-81
2022/03/12 07:07:31;;;;;;;12.3;6;;;;;;;;;;;;;-79
2022/03/12 07:09:41;;;;;;;;;;;;;;;6.86;68.02246;101532.7;;;;-80
2022/03/12 07:14:41;;;;;;;;;;;;;;;6.96;68.43652;101539.7;;;;-80
2022/03/12 07:19:41;;;;;;;;;;;;;;;7.07;68.38574;101544.2;;;;-79
2022/03/12 07:24:41;;;;;;;;;;;;;;;7.14;68.61816;101553.6;;;;-79
2022/03/12 07:29:41;;;;;;;;;;;;;;;7.22;68.88379;101555.2;;;;-81
2022/03/12 07:34:41;;;;;;;;;;;;;;;7.31;69.52637;101554.6;;;;-83
2022/03/12 07:37:31;;;;;;;11.9;5.8;;;;;;;;;;;;;-78
2022/03/12 07:39:41;;;;;;;;;;;;;;;7.38;68.96387;101560.1;;;;-81
2022/03/12 07:44:41;;;;;;;;;;;;;;;7.47;70.03613;101562.1;;;;-80
2022/03/12 07:49:41;;;;;;;;;;;;;;;7.58;69.14063;101563.6;;;;-80
2022/03/12 07:54:41;;;;;;;;;;;;;;;7.71;69.71191;101568.3;;;;-82
2022/03/12 07:59:44;;;;;;;;;;;;;;;7.87;69.27344;101581;;;;-81
2022/03/12 08:04:41;;;;;;;;;;;;;;;8.03;69.53125;101585.3;;;;-80
2022/03/12 08:07:32;;;;;;;12.4;5.7;;;;;;;;;;;;;-80
2022/03/12 08:09:56;;;;;;;;;;;;;;;8.14;70.34375;101588.7;;;;-80
2022/03/12 08:14:42;;;;;;;;;;;;;;;8.28;69.88184;101593.8;;;;-82
2022/03/12 08:19:44;;;;;;;;;;;;;;;8.41;69.16211;101598.9;;;;-81
2022/03/12 08:24:41;;;;;;;;;;;;;;;8.53;69.36816;101599.1;;;;-79
2022/03/12 08:29:41;;;;;;;;;;;;;;;8.64;68.68945;101604;;;;-81
2022/03/12 08:34:45;;;;;;;;;;;;;;;8.84;68.8877;101608.5;;;;-80
2022/03/12 08:37:32;;;;;;;9.8;4.8;;;;;;;;;;;;;-79
2022/03/12 08:39:41;;;;;;;;;;;;;;;9.09;68.52832;101612.9;;;;-81
2022/03/12 08:44:41;;;;;;;;;;;;;;;9.37;68.43848;101625.1;;;;-79
2022/03/12 08:49:41;;;;;;;;;;;;;;;9.65;68.03125;101627.1;;;;-79
2022/03/12 08:54:41;;;;;;;;;;;;;;;9.98;66.94922;101626.9;;;;-80
2022/03/12 08:59:43;;;;;;;;;;;;;;;10.26;66.9375;101623.4;;;;-79
2022/03/12 09:04:41;;;;;;;;;;;;;;;10.56;66.31641;101629.9;;;;-79
2022/03/12 09:07:36;;;;;;;9.7;3.9;;;;;;;;;;;;;-79
2022/03/12 09:09:46;;;;;;;;;;;;;;;10.66;66.28711;101630.9;;;;-79
2022/03/12 09:14:42;;;;;;;;;;;;;;;10.73;66.10938;101637.2;;;;-80
2022/03/12 09:19:46;;;;;;;;;;;;;;;10.9;65.76758;101643.7;;;;-84
2022/03/12 09:24:47;;;;;;;;;;;;;;;11.06;65.79004;101647.5;;;;-81
2022/03/12 09:29:44;;;;;;;;;;;;;;;11.24;65.31738;101650.4;;;;-81
2022/03/12 09:34:44;;;;;;;;;;;;;;;11.38;64.74805;101642.5;;;;-79
2022/03/12 09:37:37;;;;;;;8.7;4;;;;;;;;;;;;;-83
2022/03/12 09:39:41;;;;;;;;;;;;;;;11.42;64.78711;101647.8;;;;-81
2022/03/12 09:44:41;;;;;;;;;;;;;;;11.43;64.58789;101644.6;;;;-80
2022/03/12 09:49:41;;;;;;;;;;;;;;;11.4;64.97363;101651.2;;;;-80
2022/03/12 09:54:41;;;;;;;;;;;;;;;11.41;64.68457;101646.7;;;;-82
2022/03/12 09:59:44;;;;;;;;;;;;;;;11.51;64.7998;101644.9;;;;-82
2022/03/12 10:04:41;;;;;;;;;;;;;;;11.67;64.25684;101651.8;;;;-78
2022/03/12 10:07:35;;;;;;;8.6;3.9;;;;;;;;;;;;;-79
2022/03/12 10:09:41;;;;;;;;;;;;;;;11.84;63.36621;101660.4;;;;-79
2022/03/12 10:14:41;;;;;;;;;;;;;;;11.9;62.7168;101672.6;;;;-79
2022/03/12 10:19:43;;;;;;;;;;;;;;;11.91;62.62793;101678;;;;-80
2022/03/12 10:24:41;;;;;;;;;;;;;;;11.96;62.79297;101676.9;;;;-79
2022/03/12 10:29:41;;;;;;;;;;;;;;;12.03;62.84668;101676.9;;;;-80
2022/03/12 10:34:42;;;;;;;;;;;;;;;12.11;62.44727;101680.4;;;;-79
2022/03/12 10:37:41;;;;;;;7.6;3.5;;;;;;;;;;;;;-78
2022/03/12 10:39:45;;;;;;;;;;;;;;;12.21;61.92383;101677.1;;;;-80
2022/03/12 10:44:43;;;;;;;;;;;;;;;12.38;61.60254;101683.2;;;;-78
2022/03/12 10:49:43;;;;;;;;;;;;;;;12.54;60.73145;101690.6;;;;-80
2022/03/12 10:54:46;;;;;;;;;;;;;;;12.6;60.46973;101683;;;;-81
2022/03/12 10:59:42;;;;;;;;;;;;;;;12.6;60.48145;101682.8;;;;-81
2022/03/12 11:04:41;;;;;;;;;;;;;;;12.62;60.51758;101690.5;;;;-79
2022/03/12 11:07:39;;;;;;;7.9;3.3;;;;;;;;;;;;;-80
2022/03/12 11:09:43;;;;;;;;;;;;;;;12.71;60.5625;101695.5;;;;-80
2022/03/12 11:14:41;;;;;;;;;;;;;;;12.77;60.03418;101698.5;;;;-80
2022/03/12 11:19:53;;;;;;;;;;;;;;;12.9;60.06445;101707.6;;;;-80
2022/03/12 11:24:55;;;;;;;;;;;;;;;12.97;59.64844;101717.6;;;;-81
2022/03/12 11:29:54;;;;;;;;;;;;;;;13.03;59.71094;101708.9;;;;-81
2022/03/12 11:35:04;;;;;;;;;;;;;;;13.13;58.98633;101703.7;;;;-87
2022/03/12 11:37:42;;;;;;;6.7;3.8;;;;;;;;;;;;;-81
2022/03/12 11:39:47;;;;;;;;;;;;;;;13.25;59.18262;101703.2;;;;-80
2022/03/12 11:44:46;;;;;;;;;;;;;;;13.34;59.0498;101704.2;;;;-81
2022/03/12 11:50:36;;;;;;;;;;;;;;;13.63;59.10938;101707.2;;;;-81
2022/03/12 11:55:37;;;;;;;;;;;;;;;13.9;58.64063;101710;;;;-79
2022/03/12 12:00:34;;;;;;;;;;;;;;;14.1;58.10645;101709.5;;;;-81
2022/03/12 12:05:43;;;;;;;;;;;;;;;14.33;57.64355;101716.1;;;;-80
2022/03/12 12:07:47;;;;;;;6.3;4.1;;;;;;;;;;;;;-80
2022/03/12 12:10:43;;;;;;;;;;;;;;;14.51;57.19531;101715;;;;-80
2022/03/12 12:15:44;;;;;;;;;;;;;;;14.64;55.96191;101711.1;;;;-80
2022/03/12 12:20:34;;;;;;;;;;;;;;;14.85;57.11426;101709.6;;;;-81
2022/03/12 12:25:34;;;;;;;;;;;;;;;15.07;56.59082;101700.1;;;;-81
2022/03/12 12:30:43;;;;;;;;;;;;;;;15.19;56.88867;101705.4;;;;-81
2022/03/12 12:35:41;;;;;;;;;;;;;;;15.28;56.29199;101704.7;;;;-83
2022/03/12 12:37:49;;;;;;;6.4;3.8;;;;;;;;;;;;;-82
2022/03/12 12:40:36;;;;;;;;;;;;;;;15.32;55.44043;101703.5;;;;-81
2022/03/12 12:45:47;;;;;;;;;;;;;;;;;;;;;
2022/03/12 12:50:33;;;;;;;;;;;;;;;15.31;56.8125;101696.5;;;;-81
2022/03/12 12:55:35;;;;;;;;;;;;;;;15.39;56.35059;101701.3;;;;-80
2022/03/12 13:00:45;;;;;;;;;;;;;;;15.57;57.82715;101697.6;;;;-80
2022/03/12 13:05:48;;;;;;;;;;;;;;;15.71;58.68066;101692.8;;;;-82
2022/03/12 13:07:51;;;;;;;7.2;3.3;;;;;;;;;;;;;-80
2022/03/12 13:10:36;;;;;;;;;;;;;;;15.83;56.22559;101700.4;;;;-79
2022/03/12 13:15:40;;;;;;;;;;;;;;;15.86;53.92871;101694.6;;;;-80
2022/03/12 13:20:42;;;;;;;;;;;;;;;15.94;55.63086;101687.7;;;;-80
2022/03/12 13:25:42;;;;;;;;;;;;;;;16.12;54.25293;101685.4;;;;-80
2022/03/12 13:30:38;;;;;;;;;;;;;;;16.23;54.45996;101680.9;;;;-81
2022/03/12 13:35:41;;;;;;;;;;;;;;;16.28;54.08203;101673.5;;;;-81
2022/03/12 13:37:47;;;;;;;6.7;4.6;;;;;;;;;;;;;-83
2022/03/12 13:40:34;;;;;;;;;;;;;;;16.31;54.67285;101681.7;;;;-82
2022/03/12 13:45:33;;;;;;;;;;;;;;;16.41;54.77539;101674.3;;;;-80
2022/03/12 13:50:38;;;;;;;;;;;;;;;16.43;55.17383;101676.8;;;;-81
2022/03/12 13:55:38;;;;;;;;;;;;;;;16.5;54.58203;101684.8;;;;-81
2022/03/12 14:00:37;;;;;;;;;;;;;;;16.5;55.47559;101678.2;;;;-81
2022/03/12 14:05:37;;;;;;;;;;;;;;;16.54;55.98926;101675.6;;;;-83
2022/03/12 14:07:51;;;;;;;9.5;4.6;;;;;;;;;;;;;-80
2022/03/12 14:10:40;;;;;;;;;;;;;;;16.44;55.10645;101677.7;;;;-82
2022/03/12 14:15:35;;;;;;;;;;;;;;;16.34;53.53418;101678.9;;;;-82
2022/03/12 14:20:38;;;;;;;;;;;;;;;16.2;52.68164;101677.8;;;;-81
2022/03/12 14:25:39;;;;;;;;;;;;;;;16.17;54.59863;101678;;;;-81
2022/03/12 14:30:36;;;;;;;;;;;;;;;16.28;55.73047;101680.3;;;;-79
2022/03/12 14:35:34;;;;;;;;;;;;;;;16.34;55.90625;101671.5;;;;-81
2022/03/12 14:37:52;;;;;;;7.8;4.1;;;;;;;;;;;;;-82
2022/03/12 14:40:35;;;;;;;;;;;;;;;16.35;54.62207;101664.7;;;;-80
2022/03/12 14:45:34;;;;;;;;;;;;;;;16.4;56.17578;101666.8;;;;-82
2022/03/12 14:50:33;;;;;;;;;;;;;;;16.46;56.39746;101666.4;;;;-82
2022/03/12 14:55:33;;;;;;;;;;;;;;;16.45;56.64453;101661.8;;;;-82
2022/03/12 15:00:43;;;;;;;;;;;;;;;16.34;56.41504;101658.3;;;;-81
2022/03/12 15:05:36;;;;;;;;;;;;;;;16.18;56.08008;101655;;;;-80
2022/03/12 15:07:54;;;;;;;6.1;3.6;;;;;;;;;;;;;-82
2022/03/12 15:10:42;;;;;;;;;;;;;;;16.02;55.80957;101655.5;;;;-82
2022/03/12 15:15:37;;;;;;;;;;;;;;;15.87;56.32031;101655.9;;;;-83
2022/03/12 15:20:37;;;;;;;;;;;;;;;15.7;57.10156;101651.5;;;;-81
2022/03/12 15:25:35;;;;;;;;;;;;;;;15.57;56.91406;101654.5;;;;-82
2022/03/12 15:30:47;;;;;;;;;;;;;;;15.42;57.03125;101650.3;;;;-80
2022/03/12 15:35:46;;;;;;;;;;;;;;;15.27;57.16895;101648.6;;;;-81
2022/03/12 15:37:53;;;;;;;5.8;3;;;;;;;;;;;;;-82
2022/03/12 15:40:34;;;;;;;;;;;;;;;15.14;58.12012;101639.4;;;;-82
2022/03/12 15:45:37;;;;;;;;;;;;;;;15.04;58.18555;101638.1;;;;-82
2022/03/12 15:50:36;;;;;;;;;;;;;;;14.95;58.35352;101635.9;;;;-82
2022/03/12 15:55:41;;;;;;;;;;;;;;;14.83;58.6084;101634.7;;;;-83
2022/03/12 16:00:34;;;;;;;;;;;;;;;14.7;58.42285;101627;;;;-83
2022/03/12 16:05:39;;;;;;;;;;;;;;;14.56;58.50586;101622.2;;;;-81
2022/03/12 16:07:55;;;;;;;5.1;2.4;;;;;;;;;;;;;-81
2022/03/12 16:10:34;;;;;;;;;;;;;;;14.45;58.64746;101619.7;;;;-82
2022/03/12 16:15:34;;;;;;;;;;;;;;;14.4;58.93164;101608.8;;;;-82
2022/03/12 16:20:34;;;;;;;;;;;;;;;14.35;59.06055;101600.6;;;;-80
2022/03/12 16:25:35;;;;;;;;;;;;;;;14.32;59.32617;101601.1;;;;-81
2022/03/12 16:30:34;;;;;;;;;;;;;;;14.28;58.88379;101600;;;;-83
2022/03/12 16:35:33;;;;;;;;;;;;;;;14.22;58.91992;101599.4;;;;-83
2022/03/12 16:37:57;;;;;;;5.4;2.3;;;;;;;;;;;;;-82
2022/03/12 16:40:37;;;;;;;;;;;;;;;14.14;58.95508;101595.4;;;;-82
2022/03/12 16:45:35;;;;;;;;;;;;;;;14.06;58.78613;101600.6;;;;-83
2022/03/12 16:50:35;;;;;;;;;;;;;;;13.96;59.19922;101605.5;;;;-80
2022/03/12 16:55:33;;;;;;;;;;;;;;;13.86;59.4209;101599.9;;;;-84
2022/03/12 17:00:38;;;;;;;;;;;;;;;13.75;59.5293;101603.3;;;;-81
2022/03/12 17:05:35;;;;;;;;;;;;;;;13.63;59.08691;101603.3;;;;-80
2022/03/12 17:08:02;;;;;;;5;1.9;;;;;;;;;;;;;-81
2022/03/12 17:10:37;;;;;;;;;;;;;;;13.49;58.90137;101610.9;;;;-82
2022/03/12 17:15:34;;;;;;;;;;;;;;;13.35;58.94824;101608.8;;;;-83
2022/03/12 17:20:34;;;;;;;;;;;;;;;13.19;58.93945;101608.2;;;;-82
2022/03/12 17:25:34;;;;;;;;;;;;;;;13.02;59.13965;101607.3;;;;-81
2022/03/12 17:30:38;;;;;;;;;;;;;;;12.85;59.20605;101601.9;;;;-83
2022/03/12 17:35:34;;;;;;;;;;;;;;;12.67;59.29492;101600.8;;;;-83
2022/03/12 17:38:00;;;;;;;5.7;1.9;;;;;;;;;;;;;-82
2022/03/12 17:40:36;;;;;;;;;;;;;;;12.5;59.14844;101602.8;;;;-82
2022/03/12 17:45:36;;;;;;;;;;;;;;;12.35;59.29492;101607.5;;;;-82
2022/03/12 17:50:33;;;;;;;;;;;;;;;12.19;59.39648;101593.6;;;;-82
2022/03/12 17:55:33;;;;;;;;;;;;;;;12.04;59.4541;101591.1;;;;-82
2022/03/12 18:00:34;;;;;;;;;;;;;;;11.89;59.74609;101600.9;;;;-81
2022/03/12 18:05:34;;;;;;;;;;;;;;;11.74;59.79297;101599.6;;;;-82
2022/03/12 18:08:03;;;;;;;4.4;2.2;;;;;;;;;;;;;-82
2022/03/12 18:10:34;;;;;;;;;;;;;;;11.6;60.0752;101599.1;;;;-81
2022/03/12 18:15:34;;;;;;;;;;;;;;;11.47;60.22559;101594.8;;;;-82
2022/03/12 18:20:35;;;;;;;;;;;;;;;11.34;60.17285;101591.1;;;;-81
2022/03/12 18:25:36;;;;;;;;;;;;;;;11.22;60.68164;101578;;;;-82
2022/03/12 18:30:35;;;;;;;;;;;;;;;11.11;60.52051;101586.6;;;;-83
2022/03/12 18:35:36;;;;;;;;;;;;;;;11.02;60.6084;101600.6;;;;-83
2022/03/12 18:38:14;;;;;;;6.1;2.1;;;;;;;;;;;;;-82
2022/03/12 18:40:33;;;;;;;;;;;;;;;10.96;61;101596.9;;;;-82
2022/03/12 18:45:34;;;;;;;;;;;;;;;10.91;60.82715;101597.8;;;;-80
2022/03/12 18:50:35;;;;;;;;;;;;;;;10.87;61.14453;101596.8;;;;-82
2022/03/12 18:55:34;;;;;;;;;;;;;;;10.83;61.02832;101594.4;;;;-83
2022/03/12 19:00:36;;;;;;;;;;;;;;;10.8;61.02441;101592.5;;;;-81
2022/03/12 19:05:35;;;;;;;;;;;;;;;10.78;60.9873;101593.5;;;;-80
2022/03/12 19:08:07;;;;;;;6.6;2.5;;;;;;;;;;;;;-81
2022/03/12 19:10:33;;;;;;;;;;;;;;;10.75;61.20605;101590.1;;;;-80
2022/03/12 19:15:35;;;;;;;;;;;;;;;10.73;60.95898;101589.5;;;;-80
2022/03/12 19:20:35;;;;;;;;;;;;;;;10.72;61.28027;101588.6;;;;-80
2022/03/12 19:25:43;;;;;;;;;;;;;;;10.71;61.39063;101591.8;;;;-79
2022/03/12 19:30:34;;;;;;;;;;;;;;;10.7;61.36719;101594;;;;-82
2022/03/12 19:35:33;;;;;;;;;;;;;;;10.69;61.44238;101590.1;;;;-81
2022/03/12 19:38:09;;;;;;;9.2;2.9;;;;;;;;;;;;;-82
2022/03/12 19:40:34;;;;;;;;;;;;;;;10.68;61.42969;101589.1;;;;-81
2022/03/12 19:45:34;;;;;;;;;;;;;;;10.69;61.54199;101584.4;;;;-81
2022/03/12 19:50:34;;;;;;;;;;;;;;;10.69;61.51855;101585.9;;;;-80
2022/03/12 19:55:36;;;;;;;;;;;;;;;10.68;61.6416;101583.8;;;;-83
2022/03/12 20:00:35;;;;;;;;;;;;;;;10.68;61.58594;101579.2;;;;-83
2022/03/12 20:05:36;;;;;;;;;;;;;;;10.68;61.61914;101578.2;;;;-81
2022/03/12 20:08:06;;;;;;;11.6;4.7;;;;;;;;;;;;;-82
2022/03/12 20:10:33;;;;;;;;;;;;;;;10.69;61.67578;101578;;;;-81
2022/03/12 20:15:33;;;;;;;;;;;;;;;10.71;61.74512;101577.5;;;;-83
2022/03/12 20:20:34;;;;;;;;;;;;;;;10.74;61.75977;101568.8;;;;-81
2022/03/12 20:25:34;;;;;;;;;;;;;;;10.77;61.83203;101561.7;;;;-82
2022/03/12 20:30:33;;;;;;;;;;;;;;;10.79;61.74414;101556;;;;-81
2022/03/12 20:35:41;;;;;;;;;;;;;;;10.81;61.62598;101560.1;;;;-81
2022/03/12 20:38:06;;;;;;;12.4;6.1;;;;;;;;;;;;;-82
2022/03/12 20:40:33;;;;;;;;;;;;;;;10.82;61.68262;101562.1;;;;-81
2022/03/12 20:45:38;;;;;;;;;;;;;;;10.82;61.63965;101563.5;;;;-81
2022/03/12 20:50:39;;;;;;;;;;;;;;;10.81;61.74902;101560.4;;;;-80
2022/03/12 20:55:39;;;;;;;;;;;;;;;10.8;61.8252;101564;;;;-82
2022/03/12 21:00:36;;;;;;;;;;;;;;;10.8;61.82617;101558.6;;;;-81
2022/03/12 21:05:38;;;;;;;;;;;;;;;10.8;61.78125;101560.9;;;;-83
2022/03/12 21:08:17;;;;;;;15.3;6.7;;;;;;;;;;;;;-81
2022/03/12 21:10:36;;;;;;;;;;;;;;;10.79;61.95703;101564.1;;;;-79
2022/03/12 21:15:33;;;;;;;;;;;;;;;10.77;62.04395;101563.7;;;;-81
2022/03/12 21:20:35;;;;;;;;;;;;;;;10.77;61.99902;101542.7;;;;-81
2022/03/12 21:25:34;;;;;;;;;;;;;;;10.76;62.04102;101542.5;;;;-83
2022/03/12 21:30:33;;;;;;;;;;;;;;;10.74;62.0625;101541.5;;;;-81
2022/03/12 21:35:35;;;;;;;;;;;;;;;10.72;62.22461;101536.9;;;;-80
2022/03/12 21:38:11;;;;;;;15.6;7.5;;;;;;;;;;;;;-82
2022/03/12 21:40:34;;;;;;;;;;;;;;;10.71;62.125;101531.5;;;;-80
2022/03/12 21:45:33;;;;;;;;;;;;;;;10.69;62.17676;101531.6;;;;-81
2022/03/12 21:50:33;;;;;;;;;;;;;;;10.68;62.12012;101528.9;;;;-83
2022/03/12 21:55:34;;;;;;;;;;;;;;;10.66;62.34961;101524.5;;;;-81
2022/03/12 22:00:34;;;;;;;;;;;;;;;10.62;62.3457;101515.7;;;;-82
2022/03/12 22:05:33;;;;;;;;;;;;;;;10.59;62.3623;101512.1;;;;-80
2022/03/12 22:08:10;;;;;;;13.4;7.4;;;;;;;;;;;;;-81
2022/03/12 22:10:34;;;;;;;;;;;;;;;10.59;62.40723;101506.4;;;;-80
2022/03/12 22:15:37;;;;;;;;;;;;;;;10.56;62.42578;101502.7;;;;-80
2022/03/12 22:20:33;;;;;;;;;;;;;;;10.55;62.39063;101501.9;;;;-80
2022/03/12 22:25:35;;;;;;;;;;;;;;;10.52;62.54297;101503.4;;;;-80
2022/03/12 22:30:33;;;;;;;;;;;;;;;10.5;62.4834;101497.5;;;;-81
2022/03/12 22:35:34;;;;;;;;;;;;;;;10.46;62.73242;101493.8;;;;-80
2022/03/12 22:38:10;;;;;;;16.7;7.5;;;;;;;;;;;;;-81
2022/03/12 22:40:36;;;;;;;;;;;;;;;10.43;62.75195;101492.1;;;;-80
2022/03/12 22:45:37;;;;;;;;;;;;;;;10.39;62.84668;101492.1;;;;-81
2022/03/12 22:50:37;;;;;;;;;;;;;;;10.36;63.00781;101491.4;;;;-78
2022/03/12 22:55:34;;;;;;;;;;;;;;;10.33;63.1709;101491.1;;;;-79
2022/03/12 23:00:58;;;;;;;;;;;;;;;10.29;63.00879;101483.9;;;;-80
2022/03/12 23:10:33;;;;;;;;;;;;;;;10.21;63.02051;101488.4;;;;-81
2022/03/12 23:15:33;;;;;;;;;;;;;;;10.18;62.99316;101486;;;;-80
2022/03/12 23:20:37;;;;;;;;;;;;;;;10.14;63.22168;101488.8;;;;-80
2022/03/12 23:25:34;;;;;;;;;;;;;;;10.11;63.22754;101490.2;;;;-80
2022/03/12 23:30:44;;;;;;;;;;;;;;;10.08;63.30078;101489.2;;;;-80
2022/03/12 23:35:36;;;;;;;;;;;;;;;10.06;63.28711;101494.3;;;;-81
2022/03/12 23:38:14;;;;;;;14.4;7.2;;;;;;;;;;;;;-80
2022/03/12 23:40:35;;;;;;;;;;;;;;;10.04;63.3623;101494.4;;;;-81
2022/03/12 23:45:36;;;;;;;;;;;;;;;10.02;63.35938;101495.8;;;;-79
2022/03/12 23:50:34;;;;;;;;;;;;;;;10.01;63.29004;101493;;;;-81
2022/03/12 23:55:34;;;;;;;;;;;;;;;9.99;63.39844;101488.6;;;;-79
